createdAt,value
2017-11-22T00:00:25.299Z,7.30
2017-11-22T00:02:53.649Z,7.30
2017-11-22T00:05:22.725Z,7.30
2017-11-22T00:07:51.073Z,7.30
2017-11-22T00:10:19.379Z,7.40
2017-11-22T00:12:47.709Z,7.40
2017-11-22T00:15:16.011Z,7.30
2017-11-22T00:17:44.337Z,7.30
2017-11-22T00:20:12.652Z,7.30
2017-11-22T00:22:40.985Z,7.30
2017-11-22T00:25:09.282Z,7.30
2017-11-22T00:27:38.364Z,7.30
2017-11-22T00:30:06.675Z,7.20
2017-11-22T00:32:35.013Z,7.30
2017-11-22T00:35:03.312Z,7.30
2017-11-22T00:37:32.655Z,7.30
2017-11-22T00:40:01.802Z,7.20
2017-11-22T00:42:30.152Z,7.20
2017-11-22T00:44:58.458Z,7.30
2017-11-22T00:47:27.534Z,7.20
2017-11-22T00:49:55.858Z,7.20
2017-11-22T00:52:24.158Z,7.30
2017-11-22T00:54:52.494Z,7.20
2017-11-22T00:57:20.807Z,7.20
2017-11-22T00:59:49.155Z,7.10
2017-11-22T01:02:17.512Z,7.00
2017-11-22T01:04:47.845Z,6.90
2017-11-22T01:07:16.150Z,6.90
2017-11-22T01:09:44.488Z,6.90
2017-11-22T01:12:12.788Z,6.90
2017-11-22T01:14:41.121Z,7.00
2017-11-22T01:17:09.424Z,6.90
2017-11-22T01:19:37.788Z,7.00
2017-11-22T01:22:06.138Z,6.90
2017-11-22T01:24:34.483Z,6.90
2017-11-22T01:27:03.545Z,6.90
2017-11-22T01:29:31.892Z,6.90
2017-11-22T01:32:00.215Z,6.90
2017-11-22T01:34:28.537Z,7.00
2017-11-22T01:36:56.847Z,7.00
2017-11-22T01:39:25.192Z,7.00
2017-11-22T01:41:53.496Z,6.90
2017-11-22T01:44:21.845Z,6.90
2017-11-22T01:46:50.170Z,7.00
2017-11-22T01:49:18.483Z,7.00
2017-11-22T01:51:46.831Z,7.00
2017-11-22T01:54:15.170Z,7.00
2017-11-22T01:56:43.505Z,7.00
2017-11-22T01:59:11.817Z,7.00
2017-11-22T02:01:40.159Z,7.00
2017-11-22T02:04:09.274Z,7.10
2017-11-22T02:06:38.396Z,7.10
2017-11-22T02:09:06.729Z,7.10
2017-11-22T02:11:35.076Z,7.00
2017-11-22T02:14:03.389Z,7.00
2017-11-22T02:16:31.729Z,7.00
2017-11-22T02:19:00.048Z,7.00
2017-11-22T02:21:28.380Z,7.00
2017-11-22T02:23:56.689Z,6.90
2017-11-22T02:26:25.017Z,7.00
2017-11-22T02:28:53.491Z,7.00
2017-11-22T02:31:22.604Z,7.00
2017-11-22T02:33:50.953Z,7.00
2017-11-22T02:36:20.056Z,7.10
2017-11-22T02:38:49.120Z,7.10
2017-11-22T02:41:17.466Z,7.10
2017-11-22T02:43:46.559Z,7.10
2017-11-22T02:46:14.902Z,7.20
2017-11-22T02:48:43.977Z,7.20
2017-11-22T02:51:12.305Z,7.20
2017-11-22T02:53:40.623Z,7.20
2017-11-22T02:56:08.985Z,7.20
2017-11-22T02:58:37.336Z,7.20
2017-11-22T03:01:05.644Z,7.20
2017-11-22T03:03:33.978Z,7.20
2017-11-22T03:06:03.081Z,7.20
2017-11-22T03:08:31.416Z,7.20
2017-11-22T03:10:59.721Z,7.10
2017-11-22T03:13:28.042Z,7.20
2017-11-22T03:15:56.385Z,7.20
2017-11-22T03:18:25.527Z,7.20
2017-11-22T03:20:53.808Z,7.20
2017-11-22T03:23:22.149Z,7.20
2017-11-22T03:25:51.220Z,7.20
2017-11-22T03:28:20.524Z,7.20
2017-11-22T03:30:48.986Z,7.30
2017-11-22T03:33:17.414Z,7.30
2017-11-22T03:35:45.712Z,7.30
2017-11-22T03:38:14.057Z,7.30
2017-11-22T03:40:43.143Z,7.40
2017-11-22T03:43:12.250Z,7.40
2017-11-22T03:45:40.591Z,7.40
2017-11-22T03:48:14.642Z,7.40
2017-11-22T03:50:49.770Z,7.50
2017-11-22T03:53:23.677Z,7.50
2017-11-22T03:55:51.978Z,7.40
2017-11-22T03:58:21.996Z,7.50
2017-11-22T04:00:50.334Z,7.40
2017-11-22T04:03:22.230Z,7.40
2017-11-22T04:05:56.226Z,7.40
2017-11-22T04:08:27.394Z,7.30
2017-11-22T04:11:05.944Z,7.40
2017-11-22T04:13:34.274Z,7.40
2017-11-22T04:16:03.355Z,7.40
2017-11-22T04:18:31.707Z,7.40
2017-11-22T04:21:00.033Z,7.40
2017-11-22T04:23:29.140Z,7.30
2017-11-22T04:25:57.895Z,7.30
2017-11-22T04:28:26.276Z,7.30
2017-11-22T04:30:54.622Z,7.10
2017-11-22T04:33:26.545Z,7.10
2017-11-22T04:35:55.651Z,7.10
2017-11-22T04:38:23.976Z,7.00
2017-11-22T04:40:52.313Z,6.90
2017-11-22T04:43:21.568Z,6.90
2017-11-22T04:45:49.913Z,6.80
2017-11-22T04:48:18.247Z,6.80
2017-11-22T04:50:47.360Z,6.50
2017-11-22T04:53:16.459Z,6.40
2017-11-22T04:55:44.797Z,6.30
2017-11-22T04:58:13.164Z,6.40
2017-11-22T05:00:41.475Z,6.40
2017-11-22T05:03:10.600Z,6.10
2017-11-22T05:05:38.937Z,6.10
2017-11-22T05:08:07.294Z,6.20
2017-11-22T05:10:35.619Z,6.00
2017-11-22T05:13:03.956Z,6.00
2017-11-22T05:15:32.299Z,6.00
2017-11-22T05:18:00.614Z,5.80
2017-11-22T05:20:28.972Z,5.70
2017-11-22T05:22:57.688Z,5.80
2017-11-22T05:25:26.031Z,5.90
2017-11-22T05:27:54.366Z,5.90
2017-11-22T05:30:23.484Z,6.00
2017-11-22T05:32:51.803Z,6.00
2017-11-22T05:35:20.145Z,6.00
2017-11-22T05:37:48.465Z,5.90
2017-11-22T05:40:16.838Z,5.70
2017-11-22T05:42:45.156Z,5.70
2017-11-22T05:45:14.274Z,5.80
2017-11-22T05:47:42.619Z,5.80
2017-11-22T05:50:10.955Z,5.80
2017-11-22T05:52:39.299Z,5.90
2017-11-22T05:55:08.377Z,6.00
2017-11-22T05:57:36.795Z,6.00
2017-11-22T06:00:05.115Z,6.10
2017-11-22T06:02:33.460Z,6.10
2017-11-22T06:05:01.790Z,6.10
2017-11-22T06:07:30.135Z,6.00
2017-11-22T06:09:59.373Z,6.10
2017-11-22T06:12:27.715Z,6.10
2017-11-22T06:14:56.046Z,6.10
2017-11-22T06:17:25.150Z,6.10
2017-11-22T06:19:54.236Z,6.10
2017-11-22T06:22:23.352Z,6.20
2017-11-22T06:24:51.671Z,6.20
2017-11-22T06:27:20.016Z,6.20
2017-11-22T06:29:50.128Z,6.20
2017-11-22T06:32:19.236Z,6.20
2017-11-22T06:34:47.568Z,6.20
2017-11-22T06:37:15.918Z,6.30
2017-11-22T06:39:44.230Z,6.20
2017-11-22T06:42:12.570Z,6.10
2017-11-22T06:44:40.881Z,6.10
2017-11-22T06:47:09.213Z,6.00
2017-11-22T06:49:37.551Z,6.00
2017-11-22T06:52:06.680Z,5.90
2017-11-22T06:54:34.989Z,6.00
2017-11-22T06:57:03.314Z,5.90
2017-11-22T06:59:32.432Z,5.80
2017-11-22T07:02:08.652Z,5.70
2017-11-22T07:04:37.005Z,5.80
2017-11-22T07:07:05.332Z,5.60
2017-11-22T07:09:33.699Z,5.30
2017-11-22T07:12:02.023Z,5.30
2017-11-22T07:14:30.365Z,5.40
2017-11-22T07:17:04.314Z,5.50
2017-11-22T07:19:32.661Z,5.50
2017-11-22T07:22:01.756Z,5.80
2017-11-22T07:24:30.855Z,5.80
2017-11-22T07:26:59.951Z,5.60
2017-11-22T07:29:29.049Z,5.60
2017-11-22T07:31:58.223Z,5.60
2017-11-22T07:34:26.568Z,5.70
2017-11-22T07:37:00.647Z,5.70
2017-11-22T07:39:29.744Z,6.00
2017-11-22T07:41:58.828Z,6.00
2017-11-22T07:44:27.174Z,5.90
2017-11-22T07:46:55.496Z,6.10
2017-11-22T07:49:23.863Z,6.20
2017-11-22T07:51:58.563Z,6.10
2017-11-22T07:54:26.914Z,6.10
2017-11-22T07:56:55.240Z,6.20
2017-11-22T07:59:23.582Z,6.30
2017-11-22T08:01:51.903Z,6.20
2017-11-22T08:04:21.009Z,6.20
2017-11-22T08:06:49.344Z,6.20
2017-11-22T08:09:17.711Z,5.70
2017-11-22T08:11:46.037Z,5.60
2017-11-22T08:14:15.134Z,5.70
2017-11-22T08:16:44.221Z,5.70
2017-11-22T08:19:12.549Z,5.70
2017-11-22T08:21:40.892Z,5.40
2017-11-22T08:24:09.976Z,5.30
2017-11-22T08:26:38.316Z,5.20
2017-11-22T08:29:06.639Z,5.40
2017-11-22T08:31:34.976Z,5.60
2017-11-22T08:34:03.306Z,5.80
2017-11-22T08:36:32.420Z,6.00
2017-11-22T08:39:00.740Z,5.90
2017-11-22T08:41:29.088Z,6.20
2017-11-22T08:43:57.412Z,6.60
2017-11-22T08:46:25.750Z,6.80
2017-11-22T08:48:54.068Z,7.00
2017-11-22T08:51:22.419Z,6.70
2017-11-22T08:53:50.743Z,6.90
2017-11-22T08:56:20.859Z,6.70
2017-11-22T08:58:49.179Z,7.20
2017-11-22T09:01:17.513Z,6.90
2017-11-22T09:03:45.839Z,6.80
2017-11-22T09:06:19.723Z,6.50
2017-11-22T09:08:48.807Z,6.10
2017-11-22T09:11:17.902Z,6.40
2017-11-22T09:13:46.238Z,6.40
2017-11-22T09:16:14.601Z,5.80
2017-11-22T09:18:42.931Z,6.20
2017-11-22T09:21:11.279Z,6.30
2017-11-22T09:23:39.596Z,6.10
2017-11-22T09:26:08.702Z,6.20
2017-11-22T09:28:37.802Z,6.40
2017-11-22T09:31:12.591Z,6.40
2017-11-22T09:33:40.912Z,6.30
2017-11-22T09:36:10.031Z,6.40
2017-11-22T09:38:38.351Z,6.40
2017-11-22T09:41:06.709Z,6.90
2017-11-22T09:43:35.019Z,6.70
2017-11-22T09:46:03.357Z,6.70
2017-11-22T09:48:31.686Z,6.50
2017-11-22T09:51:00.021Z,6.40
2017-11-22T09:53:28.347Z,6.80
2017-11-22T09:55:56.693Z,6.60
2017-11-22T09:58:25.027Z,6.60
2017-11-22T10:00:53.359Z,6.90
2017-11-22T10:03:21.688Z,7.40
2017-11-22T10:05:50.040Z,7.80
2017-11-22T10:08:18.358Z,7.90
2017-11-22T10:10:46.719Z,7.90
2017-11-22T10:13:15.042Z,8.10
2017-11-22T10:15:43.374Z,8.00
2017-11-22T10:18:11.700Z,8.30
2017-11-22T10:20:45.830Z,8.70
2017-11-22T10:23:20.544Z,9.40
2017-11-22T10:25:48.882Z,9.30
2017-11-22T10:28:17.213Z,9.50
2017-11-22T10:30:45.560Z,9.20
2017-11-22T10:33:14.792Z,9.30
2017-11-22T10:35:43.122Z,9.60
2017-11-22T10:38:11.439Z,9.60
2017-11-22T10:40:39.785Z,10.20
2017-11-22T10:43:08.115Z,10.40
2017-11-22T10:45:36.471Z,10.80
2017-11-22T10:48:04.810Z,10.40
2017-11-22T10:50:33.155Z,10.60
2017-11-22T10:53:01.479Z,10.50
2017-11-22T10:55:29.820Z,10.50
2017-11-22T10:57:58.922Z,11.00
2017-11-22T11:00:27.287Z,10.90
2017-11-22T11:02:55.617Z,11.30
2017-11-22T11:05:24.730Z,11.50
2017-11-22T11:07:53.054Z,11.50
2017-11-22T11:10:22.139Z,11.60
2017-11-22T11:12:51.264Z,11.90
2017-11-22T11:15:19.622Z,11.80
2017-11-22T11:17:47.959Z,12.10
2017-11-22T11:20:16.270Z,12.00
2017-11-22T11:22:44.615Z,12.20
2017-11-22T11:25:12.923Z,12.40
2017-11-22T11:27:41.286Z,12.50
2017-11-22T11:30:09.614Z,12.60
2017-11-22T11:32:38.007Z,12.60
2017-11-22T11:35:07.115Z,12.50
2017-11-22T11:37:35.479Z,12.50
2017-11-22T11:40:03.810Z,12.60
2017-11-22T11:42:32.159Z,12.60
2017-11-22T11:45:00.493Z,12.80
2017-11-22T11:47:29.597Z,12.80
2017-11-22T11:49:58.685Z,12.80
2017-11-22T11:52:27.792Z,12.80
2017-11-22T11:54:56.885Z,12.90
2017-11-22T11:57:26.023Z,13.00
2017-11-22T11:59:54.377Z,13.00
2017-11-22T12:02:22.704Z,12.80
2017-11-22T12:04:51.050Z,12.60
2017-11-22T12:07:19.371Z,12.70
2017-11-22T12:09:47.743Z,12.80
2017-11-22T12:12:16.071Z,12.90
2017-11-22T12:14:44.456Z,13.00
2017-11-22T12:17:12.785Z,13.00
2017-11-22T12:19:41.123Z,13.00
2017-11-22T12:22:13.365Z,13.00
2017-11-22T12:24:41.703Z,13.00
2017-11-22T12:27:10.010Z,13.20
2017-11-22T12:29:38.350Z,13.20
2017-11-22T12:32:06.663Z,13.20
2017-11-22T12:34:35.020Z,13.30
2017-11-22T12:37:03.358Z,13.30
2017-11-22T12:39:31.680Z,13.40
2017-11-22T12:42:00.027Z,13.40
2017-11-22T12:44:28.347Z,13.30
2017-11-22T12:46:56.718Z,13.50
2017-11-22T12:49:25.029Z,13.60
2017-11-22T12:51:54.136Z,13.30
2017-11-22T12:54:22.485Z,13.30
2017-11-22T12:56:50.827Z,13.10
2017-11-22T12:59:19.158Z,12.80
2017-11-22T13:01:48.282Z,12.70
2017-11-22T13:04:16.608Z,12.70
2017-11-22T13:06:44.955Z,12.60
2017-11-22T13:09:13.274Z,12.70
2017-11-22T13:11:41.600Z,12.70
2017-11-22T13:14:09.943Z,12.90
2017-11-22T13:16:39.029Z,12.80
2017-11-22T13:19:07.376Z,12.80
2017-11-22T13:21:35.696Z,12.80
2017-11-22T13:24:04.816Z,13.10
2017-11-22T13:26:33.148Z,13.10
2017-11-22T13:29:01.487Z,13.10
2017-11-22T13:31:29.811Z,12.90
2017-11-22T13:33:58.152Z,12.90
2017-11-22T13:36:26.497Z,13.20
2017-11-22T13:38:54.855Z,13.10
2017-11-22T13:41:29.961Z,13.10
2017-11-22T13:43:58.291Z,13.10
2017-11-22T13:46:26.636Z,13.10
2017-11-22T13:48:55.011Z,13.00
2017-11-22T13:51:23.333Z,12.90
2017-11-22T13:53:52.439Z,13.00
2017-11-22T13:56:20.760Z,13.00
2017-11-22T13:58:49.118Z,13.00
2017-11-22T14:01:17.435Z,13.00
2017-11-22T14:03:45.776Z,13.10
2017-11-22T14:06:14.111Z,13.10
2017-11-22T14:08:43.230Z,13.10
2017-11-22T14:11:11.575Z,13.10
2017-11-22T14:13:40.703Z,13.20
2017-11-22T14:16:09.042Z,13.20
2017-11-22T14:18:37.400Z,13.20
2017-11-22T14:21:05.735Z,12.90
2017-11-22T14:23:34.090Z,12.60
2017-11-22T14:26:03.183Z,12.90
2017-11-22T14:28:31.515Z,12.90
2017-11-22T14:30:59.886Z,13.10
2017-11-22T14:33:28.240Z,13.00
2017-11-22T14:35:56.564Z,12.80
2017-11-22T14:38:25.663Z,12.30
2017-11-22T14:40:53.996Z,12.30
2017-11-22T14:43:23.280Z,12.10
2017-11-22T14:45:51.606Z,12.00
2017-11-22T14:48:19.951Z,11.80
2017-11-22T14:50:49.031Z,11.60
2017-11-22T14:53:17.374Z,11.50
2017-11-22T14:55:45.712Z,11.60
2017-11-22T14:58:14.051Z,11.60
2017-11-22T15:00:42.384Z,11.70
2017-11-22T15:03:10.744Z,11.80
2017-11-22T15:05:39.075Z,11.70
2017-11-22T15:08:07.418Z,11.50
2017-11-22T15:10:35.739Z,11.50
2017-11-22T15:13:04.080Z,11.50
2017-11-22T15:15:32.426Z,11.30
2017-11-22T15:18:00.756Z,11.30
2017-11-22T15:20:29.080Z,11.30
2017-11-22T15:22:58.202Z,11.00
2017-11-22T15:25:26.535Z,11.10
2017-11-22T15:27:54.886Z,11.00
2017-11-22T15:30:23.212Z,11.00
2017-11-22T15:32:52.314Z,11.00
2017-11-22T15:35:21.410Z,10.90
2017-11-22T15:37:49.746Z,10.80
2017-11-22T15:40:18.122Z,10.80
2017-11-22T15:42:46.465Z,10.70
2017-11-22T15:45:14.783Z,10.60
2017-11-22T15:47:43.117Z,10.40
2017-11-22T15:50:12.203Z,10.30
2017-11-22T15:52:41.332Z,10.20
2017-11-22T15:55:09.648Z,10.10
2017-11-22T15:57:38.025Z,10.10
2017-11-22T16:00:06.337Z,10.20
2017-11-22T16:02:35.462Z,10.20
2017-11-22T16:05:03.780Z,10.10
2017-11-22T16:07:32.123Z,10.10
2017-11-22T16:10:00.442Z,9.80
2017-11-22T16:12:28.779Z,9.80
2017-11-22T16:14:57.087Z,9.80
2017-11-22T16:17:25.469Z,9.70
2017-11-22T16:19:53.778Z,9.70
2017-11-22T16:22:22.112Z,9.80
2017-11-22T16:24:50.419Z,9.90
2017-11-22T16:27:18.750Z,9.80
2017-11-22T16:29:47.100Z,9.80
2017-11-22T16:32:15.438Z,9.70
2017-11-22T16:34:43.757Z,9.70
2017-11-22T16:37:12.907Z,9.20
2017-11-22T16:39:41.215Z,9.20
2017-11-22T16:42:09.599Z,9.30
2017-11-22T16:44:38.695Z,8.60
2017-11-22T16:47:07.023Z,8.60
2017-11-22T16:49:35.330Z,8.30
2017-11-22T16:52:03.668Z,8.40
2017-11-22T16:54:32.042Z,8.20
2017-11-22T16:57:01.173Z,8.00
2017-11-22T16:59:29.480Z,8.00
2017-11-22T17:01:57.797Z,8.00
2017-11-22T17:04:26.099Z,7.90
2017-11-22T17:06:54.450Z,7.70
2017-11-22T17:09:23.551Z,7.30
2017-11-22T17:11:52.657Z,7.40
2017-11-22T17:14:20.987Z,7.40
2017-11-22T17:16:49.333Z,7.40
2017-11-22T17:19:17.709Z,7.40
2017-11-22T17:21:46.011Z,6.90
2017-11-22T17:24:14.352Z,6.70
2017-11-22T17:26:42.663Z,6.50
2017-11-22T17:29:10.997Z,6.40
2017-11-22T17:31:39.324Z,6.40
2017-11-22T17:34:07.706Z,6.40
2017-11-22T17:36:36.025Z,6.20
2017-11-22T17:39:05.179Z,5.40
2017-11-22T17:41:33.496Z,5.40
2017-11-22T17:44:02.600Z,5.50
2017-11-22T17:46:30.919Z,5.40
2017-11-22T17:48:59.249Z,5.50
2017-11-22T17:51:28.392Z,5.70
2017-11-22T17:53:56.740Z,5.70
2017-11-22T17:56:25.249Z,5.60
2017-11-22T17:58:53.607Z,5.60
2017-11-22T18:01:21.980Z,5.50
2017-11-22T18:03:51.048Z,5.30
2017-11-22T18:06:20.192Z,5.50
2017-11-22T18:08:48.494Z,5.50
2017-11-22T18:11:16.869Z,5.50
2017-11-22T18:13:45.241Z,5.50
2017-11-22T18:16:13.662Z,5.20
2017-11-22T18:18:42.018Z,5.10
2017-11-22T18:21:10.321Z,5.20
2017-11-22T18:23:39.440Z,4.80
2017-11-22T18:26:07.767Z,4.80
2017-11-22T18:28:36.095Z,4.80
2017-11-22T18:31:05.211Z,4.70
2017-11-22T18:33:33.583Z,4.60
2017-11-22T18:36:01.934Z,4.80
2017-11-22T18:38:30.307Z,4.70
2017-11-22T18:40:58.671Z,4.70
2017-11-22T18:43:26.986Z,4.70
2017-11-22T18:45:56.101Z,4.40
2017-11-22T18:48:24.463Z,4.40
2017-11-22T18:50:53.569Z,3.90
2017-11-22T18:53:22.662Z,4.00
2017-11-22T18:55:51.725Z,4.10
2017-11-22T18:58:20.094Z,4.10
2017-11-22T19:00:48.421Z,4.10
2017-11-22T19:03:20.050Z,4.00
2017-11-22T19:05:48.402Z,3.90
2017-11-22T19:08:16.752Z,3.90
2017-11-22T19:10:45.121Z,3.80
2017-11-22T19:13:13.457Z,3.90
2017-11-22T19:15:41.834Z,4.00
2017-11-22T19:18:10.184Z,3.90
2017-11-22T19:20:38.582Z,3.80
2017-11-22T19:23:06.943Z,3.50
2017-11-22T19:25:35.313Z,3.40
2017-11-22T19:28:03.678Z,3.20
2017-11-22T19:30:32.067Z,3.10
2017-11-22T19:33:00.366Z,3.20
2017-11-22T19:35:28.763Z,3.20
2017-11-22T19:37:57.113Z,3.20
2017-11-22T19:40:26.246Z,3.30
2017-11-22T19:42:54.552Z,3.30
2017-11-22T19:45:23.659Z,3.30
2017-11-22T19:47:52.769Z,3.20
2017-11-22T19:50:21.147Z,3.20
2017-11-22T19:52:49.500Z,3.20
2017-11-22T19:55:18.635Z,2.90
2017-11-22T19:57:46.989Z,2.90
2017-11-22T20:00:16.162Z,2.60
2017-11-22T20:02:44.542Z,2.60
2017-11-22T20:05:13.644Z,2.60
2017-11-22T20:07:47.872Z,2.60
2017-11-22T20:10:17.006Z,2.70
2017-11-22T20:12:45.411Z,2.70
2017-11-22T20:15:13.778Z,2.70
2017-11-22T20:17:42.160Z,2.70
2017-11-22T20:20:10.527Z,2.60
2017-11-22T20:22:38.892Z,2.50
2017-11-22T20:25:07.274Z,2.40
2017-11-22T20:27:35.656Z,2.30
2017-11-22T20:30:04.054Z,2.40
2017-11-22T20:32:32.403Z,2.30
2017-11-22T20:35:00.797Z,2.20
2017-11-22T20:37:29.163Z,2.30
2017-11-22T20:39:57.538Z,2.20
2017-11-22T20:42:25.908Z,2.20
2017-11-22T20:44:55.026Z,2.20
2017-11-22T20:47:23.401Z,2.20
2017-11-22T20:49:51.777Z,2.20
2017-11-22T20:52:20.115Z,2.00
2017-11-22T20:54:48.425Z,1.90
2017-11-22T20:57:17.574Z,1.90
2017-11-22T20:59:45.926Z,1.90
2017-11-22T21:02:14.296Z,2.00
2017-11-22T21:04:42.651Z,1.90
2017-11-22T21:07:11.735Z,1.80
2017-11-22T21:09:40.061Z,1.80
2017-11-22T21:12:08.426Z,1.80
2017-11-22T21:14:36.806Z,1.70
2017-11-22T21:17:05.176Z,1.70
2017-11-22T21:19:33.564Z,1.70
2017-11-22T21:22:01.886Z,1.70
2017-11-22T21:24:30.259Z,1.70
2017-11-22T21:26:58.622Z,1.60
2017-11-22T21:29:27.014Z,1.60
2017-11-22T21:31:55.323Z,1.60
2017-11-22T21:34:23.706Z,1.40
2017-11-22T21:36:52.066Z,1.30
2017-11-22T21:39:20.467Z,1.30
2017-11-22T21:41:49.589Z,1.20
2017-11-22T21:44:17.931Z,1.20
2017-11-22T21:46:46.294Z,1.20
2017-11-22T21:49:14.683Z,1.20
2017-11-22T21:51:43.058Z,1.20
2017-11-22T21:54:11.433Z,1.10
2017-11-22T21:56:39.816Z,1.00
2017-11-22T21:59:08.197Z,0.90
2017-11-22T22:01:36.591Z,0.90
2017-11-22T22:04:05.741Z,0.90
2017-11-22T22:06:34.118Z,0.90
2017-11-22T22:09:02.485Z,1.10
2017-11-22T22:11:30.878Z,1.00
2017-11-22T22:13:59.249Z,0.90
2017-11-22T22:16:27.625Z,0.90
2017-11-22T22:18:55.940Z,0.90
2017-11-22T22:21:24.326Z,0.70
2017-11-22T22:23:52.636Z,0.50
2017-11-22T22:26:21.750Z,0.70
2017-11-22T22:28:50.833Z,0.60
2017-11-22T22:31:19.211Z,0.60
2017-11-22T22:33:48.292Z,0.60
2017-11-22T22:36:16.664Z,0.60
2017-11-22T22:38:45.003Z,0.60
2017-11-22T22:41:14.098Z,0.70
2017-11-22T22:43:42.453Z,0.70
2017-11-22T22:46:11.553Z,0.70
2017-11-22T22:48:39.907Z,0.60
2017-11-22T22:51:08.258Z,0.70
2017-11-22T22:53:36.635Z,0.60
2017-11-22T22:56:04.963Z,0.50
2017-11-22T22:58:33.354Z,0.40
2017-11-22T23:01:01.712Z,0.30
2017-11-22T23:03:30.830Z,0.50
2017-11-22T23:05:59.160Z,0.50
2017-11-22T23:08:27.507Z,0.40
2017-11-22T23:10:55.868Z,0.40
2017-11-22T23:13:24.211Z,0.20
2017-11-22T23:15:52.530Z,0.20
2017-11-22T23:18:20.920Z,0.30
2017-11-22T23:20:49.316Z,0.40
2017-11-22T23:23:17.679Z,0.40
2017-11-22T23:25:46.047Z,0.50
2017-11-22T23:28:14.391Z,0.40
2017-11-22T23:30:42.730Z,0.40
2017-11-22T23:33:11.035Z,0.30
2017-11-22T23:35:39.378Z,0.10
2017-11-22T23:38:07.697Z,0.20
2017-11-22T23:40:36.022Z,0.10
2017-11-22T23:43:04.337Z,0.20
2017-11-22T23:45:32.687Z,0.20
2017-11-22T23:48:00.996Z,0.10
2017-11-22T23:50:29.424Z,-0.10
2017-11-22T23:52:58.523Z,-0.30
2017-11-22T23:55:26.875Z,-0.30
2017-11-22T23:57:55.192Z,-0.10
